Time;durP1;ratioP1;P1;durP2;ratioP2;P2;SDS_P1;SDS_P2;PMS_P1;PMS_P2;Temp;Humidity;BMP_temperature;BMP_pressure;BME280_temperature;BME280_humidity;BME280_pressure;Samples;Min_cycle;Max_cycle;Signal;HPM_P1;HPM_P2
2021/03/10 00:01:24;;;;;;;30.00;16.50;;;3.90;99.90;;;;;;4979569;28;20026;-86
2021/03/10 00:03:50;;;;;;;27.30;16.93;;;3.90;99.90;;;;;;4978774;28;20030;-86
2021/03/10 00:06:15;;;;;;;28.43;16.67;;;3.90;99.90;;;;;;4976953;28;20030;-86
2021/03/10 00:08:41;;;;;;;29.07;16.37;;;3.80;99.90;;;;;;4979770;28;20022;-86
2021/03/10 00:11:07;;;;;;;28.47;16.10;;;3.80;99.90;;;;;;4979268;28;20027;-86
2021/03/10 00:13:32;;;;;;;28.97;16.60;;;3.80;99.90;;;;;;4996403;28;20022;-86
2021/03/10 00:15:58;;;;;;;25.47;15.33;;;3.80;99.90;;;;;;4979291;28;20476;-86
2021/03/10 00:18:23;;;;;;;25.97;16.77;;;3.80;99.90;;;;;;4979311;28;20035;-86
2021/03/10 00:20:49;;;;;;;29.87;17.13;;;3.80;99.90;;;;;;4979307;28;20462;-87
2021/03/10 00:23:15;;;;;;;27.03;16.93;;;3.90;99.90;;;;;;4977810;28;20491;-87
2021/03/10 00:25:40;;;;;;;27.87;16.70;;;3.80;99.90;;;;;;4974832;28;20113;-86
2021/03/10 00:28:06;;;;;;;27.40;16.37;;;3.90;99.90;;;;;;4977479;28;20037;-86
2021/03/10 00:30:31;;;;;;;27.37;15.70;;;3.90;99.90;;;;;;4978748;28;20026;-86
2021/03/10 00:32:57;;;;;;;27.43;16.37;;;3.90;99.90;;;;;;4970180;28;20057;-86
2021/03/10 00:35:23;;;;;;;25.67;16.83;;;3.90;99.90;;;;;;4977919;28;20026;-87
2021/03/10 00:37:48;;;;;;;26.00;16.13;;;3.90;99.90;;;;;;4979395;28;20026;-86
2021/03/10 00:40:15;;;;;;;27.17;16.70;;;3.90;99.90;;;;;;4978741;28;20502;-87
2021/03/10 00:42:41;;;;;;;27.00;16.73;;;3.90;99.90;;;;;;4977909;28;20034;-87
2021/03/10 00:45:07;;;;;;;28.77;18.20;;;3.90;99.90;;;;;;4978688;28;20030;-86
2021/03/10 00:47:32;;;;;;;30.00;17.50;;;3.80;99.90;;;;;;4978117;28;20389;-86
2021/03/10 00:49:58;;;;;;;30.43;17.27;;;3.80;99.90;;;;;;4978572;28;20026;-86
2021/03/10 00:52:27;;;;;;;29.30;17.77;;;3.80;99.90;;;;;;4978481;28;20018;-85
2021/03/10 00:54:52;;;;;;;31.30;17.43;;;3.80;99.90;;;;;;4978060;28;20034;-86
2021/03/10 00:57:18;;;;;;;31.77;18.30;;;3.80;99.90;;;;;;4977888;28;20033;-86
2021/03/10 00:59:43;;;;;;;30.87;18.17;;;3.80;99.90;;;;;;4978301;28;20122;-87
2021/03/10 01:02:09;;;;;;;33.57;18.70;;;3.80;99.90;;;;;;4995619;28;20022;-86
2021/03/10 01:04:35;;;;;;;33.63;18.70;;;3.80;99.90;;;;;;4972125;28;20033;-87
2021/03/10 01:07:00;;;;;;;34.77;18.43;;;3.80;99.90;;;;;;4993483;28;20026;-86
2021/03/10 01:09:26;;;;;;;33.57;19.80;;;3.80;99.90;;;;;;4978132;28;20026;-86
2021/03/10 01:11:52;;;;;;;34.90;19.27;;;3.80;99.90;;;;;;4978032;28;20018;-87
2021/03/10 01:14:18;;;;;;;34.70;19.57;;;3.80;99.90;;;;;;4977446;28;20077;-86
2021/03/10 01:16:43;;;;;;;34.67;19.93;;;3.80;99.90;;;;;;4977891;28;20053;-86
2021/03/10 01:19:09;;;;;;;33.80;19.50;;;3.80;99.90;;;;;;4977753;28;20112;-86
2021/03/10 01:21:35;;;;;;;32.60;18.93;;;3.70;99.90;;;;;;4995320;28;20049;-86
2021/03/10 01:24:00;;;;;;;37.53;20.43;;;3.70;99.90;;;;;;4977891;28;20026;-86
2021/03/10 01:26:26;;;;;;;40.17;20.50;;;3.70;99.90;;;;;;4977868;28;20033;-86
2021/03/10 01:28:52;;;;;;;35.20;19.77;;;3.70;99.90;;;;;;4970200;28;20475;-87
2021/03/10 01:31:17;;;;;;;31.77;18.83;;;3.70;99.90;;;;;;4978280;28;20027;-86
2021/03/10 01:33:43;;;;;;;33.73;19.47;;;3.70;99.90;;;;;;4977994;28;20475;-86
2021/03/10 01:36:09;;;;;;;31.27;18.60;;;3.80;99.90;;;;;;4977899;28;20034;-87
2021/03/10 01:38:34;;;;;;;34.93;18.67;;;3.80;99.90;;;;;;4977743;28;20120;-86
2021/03/10 01:41:00;;;;;;;35.00;19.73;;;3.80;99.90;;;;;;4971726;28;20056;-87
2021/03/10 01:43:25;;;;;;;32.37;19.10;;;3.80;99.90;;;;;;4976044;28;20022;-86
2021/03/10 01:45:51;;;;;;;35.33;20.30;;;3.80;99.90;;;;;;4977373;28;20084;-87
2021/03/10 01:48:20;;;;;;;37.77;21.40;;;3.80;99.90;;;;;;4981559;28;20065;-89
2021/03/10 01:50:46;;;;;;;33.50;19.90;;;3.80;99.90;;;;;;5013178;28;20011;-89
2021/03/10 01:53:12;;;;;;;35.33;21.00;;;3.70;99.90;;;;;;4995600;28;20030;-88
2021/03/10 01:55:38;;;;;;;36.30;20.27;;;3.70;99.90;;;;;;4978308;28;20092;-86
2021/03/10 01:58:03;;;;;;;30.43;18.33;;;3.70;99.90;;;;;;4977482;28;20027;-87
2021/03/10 02:00:29;;;;;;;37.60;19.50;;;3.60;99.90;;;;;;4977711;28;20037;-87
2021/03/10 02:02:55;;;;;;;38.40;20.80;;;3.60;99.90;;;;;;4977112;28;20130;-87
2021/03/10 02:05:23;;;;;;;36.13;20.47;;;3.60;99.90;;;;;;4977659;28;20077;-87
2021/03/10 02:08:07;;;;;;;35.07;20.20;;;3.50;99.90;;;;;;4975085;28;20027;-87
2021/03/10 02:10:58;;;;;;;35.20;19.97;;;3.50;99.90;;;;;;4973724;28;20037;-87
2021/03/10 02:13:30;;;;;;;35.60;21.10;;;3.40;99.90;;;;;;4976137;28;20026;-87
2021/03/10 02:16:19;;;;;;;37.22;20.25;;;3.40;99.90;;;;;;4972344;28;20057;-87
2021/03/10 02:18:47;;;;;;;35.10;19.97;;;3.40;99.90;;;;;;4976214;28;20031;-87
2021/03/10 02:21:22;;;;;;;33.00;19.37;;;3.40;99.90;;;;;;4970784;28;20035;-87
2021/03/10 02:24:35;;;;;;;36.77;20.13;;;3.40;99.90;;;;;;4977822;28;20073;-88
2021/03/10 02:27:41;;;;;;;33.53;20.23;;;3.40;99.90;;;;;;4972730;28;20036;-87
2021/03/10 02:30:11;;;;;;;36.13;20.70;;;3.40;99.90;;;;;;4979594;28;20029;-88
2021/03/10 02:32:40;;;;;;;35.90;20.10;;;3.30;99.90;;;;;;4980823;28;20065;-87
2021/03/10 02:35:08;;;;;;;34.50;19.80;;;3.30;99.90;;;;;;4998093;28;20049;-88
2021/03/10 02:37:40;;;;;;;35.87;20.97;;;3.30;99.90;;;;;;4980599;28;20034;-87
2021/03/10 02:40:09;;;;;;;33.60;20.05;;;3.30;99.90;;;;;;4980026;28;20027;-87
2021/03/10 02:42:36;;;;;;;39.77;22.03;;;3.20;99.90;;;;;;4980318;28;20066;-87
2021/03/10 02:45:03;;;;;;;34.60;20.40;;;3.20;99.90;;;;;;4980884;28;20023;-88
2021/03/10 02:47:31;;;;;;;32.40;19.17;;;3.20;99.90;;;;;;4980309;28;20030;-87
2021/03/10 02:49:57;;;;;;;37.60;21.03;;;3.20;99.90;;;;;;4980158;28;20048;-87
2021/03/10 02:52:25;;;;;;;38.27;21.20;;;3.20;99.90;;;;;;4981083;28;20010;-87
2021/03/10 02:54:52;;;;;;;38.33;21.77;;;3.10;99.90;;;;;;4980911;28;20023;-87
2021/03/10 02:57:18;;;;;;;41.10;21.60;;;3.00;99.90;;;;;;4980786;28;20108;-87
2021/03/10 02:59:45;;;;;;;36.27;21.13;;;3.10;99.90;;;;;;4980124;28;20053;-87
2021/03/10 03:02:12;;;;;;;40.57;22.40;;;3.00;99.90;;;;;;4980097;28;20033;-87
2021/03/10 03:04:38;;;;;;;39.10;21.47;;;3.00;99.90;;;;;;4980552;28;20058;-87
2021/03/10 03:07:03;;;;;;;42.07;23.17;;;3.00;99.90;;;;;;4980571;28;20046;-87
2021/03/10 03:09:29;;;;;;;38.87;22.50;;;3.00;99.90;;;;;;4980121;28;20033;-88
2021/03/10 03:11:56;;;;;;;36.97;21.53;;;2.90;99.90;;;;;;4980333;28;20022;-87
2021/03/10 03:14:22;;;;;;;39.90;23.30;;;3.00;99.90;;;;;;4980774;28;20523;-87
2021/03/10 03:16:49;;;;;;;41.43;21.87;;;3.00;99.90;;;;;;4979990;28;20027;-87
2021/03/10 03:19:14;;;;;;;37.73;21.67;;;2.90;99.90;;;;;;4992313;28;20023;-87
2021/03/10 03:21:42;;;;;;;42.10;23.60;;;2.90;99.90;;;;;;4979515;28;20045;-87
2021/03/10 03:24:10;;;;;;;41.57;22.97;;;3.00;99.90;;;;;;4977281;28;20116;-88
2021/03/10 03:26:36;;;;;;;39.70;22.17;;;3.00;99.90;;;;;;4980153;28;20026;-87
2021/03/10 03:29:03;;;;;;;47.53;24.57;;;3.00;99.90;;;;;;4980253;28;20030;-87
2021/03/10 03:31:31;;;;;;;39.90;23.30;;;3.10;99.90;;;;;;4979552;28;20025;-87
2021/03/10 03:33:57;;;;;;;45.30;24.67;;;3.10;99.90;;;;;;4973450;28;20046;-87
2021/03/10 03:36:24;;;;;;;39.50;22.00;;;3.10;99.90;;;;;;4968649;28;20033;-87
2021/03/10 03:38:50;;;;;;;41.43;23.80;;;3.20;99.90;;;;;;4979549;28;20030;-87
2021/03/10 03:41:20;;;;;;;42.97;24.07;;;3.20;99.90;;;;;;4979126;28;20406;-87
2021/03/10 03:43:46;;;;;;;45.60;23.90;;;3.20;99.90;;;;;;4978895;28;20077;-86
2021/03/10 03:46:12;;;;;;;43.47;23.93;;;3.20;99.90;;;;;;4979123;28;20030;-87
2021/03/10 03:48:38;;;;;;;42.23;23.03;;;3.30;99.90;;;;;;4979558;28;20032;-87
2021/03/10 03:51:24;;;;;;;43.63;23.80;;;3.20;99.90;;;;;;4979615;28;20447;-87
2021/03/10 03:53:57;;;;;;;46.80;25.33;;;3.20;99.90;;;;;;4978719;28;20439;-87
2021/03/10 03:56:23;;;;;;;43.97;23.67;;;3.20;99.90;;;;;;4975643;28;20030;-87
2021/03/10 03:58:49;;;;;;;44.70;23.97;;;3.20;99.90;;;;;;4979081;28;20026;-87
2021/03/10 04:01:14;;;;;;;43.63;24.50;;;3.20;99.90;;;;;;4979598;28;20070;-87
2021/03/10 04:03:40;;;;;;;44.87;24.13;;;3.20;99.90;;;;;;4978899;28;20026;-87
2021/03/10 04:06:06;;;;;;;44.30;24.30;;;3.20;99.90;;;;;;4979257;28;20053;-87
2021/03/10 04:08:32;;;;;;;47.30;25.47;;;3.20;99.90;;;;;;4968634;28;20022;-87
2021/03/10 04:10:58;;;;;;;43.47;23.97;;;3.20;99.90;;;;;;4979259;28;20081;-87
2021/03/10 04:13:23;;;;;;;46.23;24.20;;;3.20;99.90;;;;;;4979069;28;20022;-88
2021/03/10 04:15:49;;;;;;;49.30;26.27;;;3.20;99.90;;;;;;4978539;28;20018;-87
2021/03/10 04:18:14;;;;;;;49.03;25.90;;;3.20;99.90;;;;;;4979608;28;20030;-87
2021/03/10 04:20:40;;;;;;;41.53;24.20;;;3.20;99.90;;;;;;4978664;28;20472;-87
2021/03/10 04:23:06;;;;;;;47.27;24.70;;;3.20;99.90;;;;;;4978436;28;20026;-88
2021/03/10 04:25:31;;;;;;;49.83;26.23;;;3.20;99.90;;;;;;4973143;28;20089;-88
2021/03/10 04:27:57;;;;;;;48.37;25.30;;;3.20;99.90;;;;;;4975916;28;20489;-87
2021/03/10 04:30:24;;;;;;;47.90;25.17;;;3.20;99.90;;;;;;4977844;28;20026;-87
2021/03/10 04:32:49;;;;;;;50.43;25.57;;;3.20;99.90;;;;;;4978122;28;20068;-87
2021/03/10 04:35:16;;;;;;;46.60;25.07;;;3.30;99.90;;;;;;4977779;28;20113;-87
2021/03/10 04:37:42;;;;;;;43.53;23.93;;;3.20;99.90;;;;;;4994919;28;20034;-88
2021/03/10 04:40:09;;;;;;;47.77;25.90;;;3.20;99.90;;;;;;4977813;28;20030;-89
2021/03/10 04:42:35;;;;;;;45.97;24.90;;;3.20;99.90;;;;;;4976979;28;20026;-87
2021/03/10 04:45:01;;;;;;;45.90;24.73;;;3.20;99.90;;;;;;4977116;28;20497;-87
2021/03/10 04:47:27;;;;;;;49.90;26.30;;;3.20;99.90;;;;;;4976842;28;20034;-87
2021/03/10 04:49:53;;;;;;;46.97;24.17;;;3.20;99.90;;;;;;4975414;28;20125;-87
2021/03/10 04:52:18;;;;;;;49.80;26.07;;;3.10;99.90;;;;;;4977621;28;20105;-87
2021/03/10 04:54:44;;;;;;;50.13;26.03;;;3.20;99.90;;;;;;4977956;28;20030;-87
2021/03/10 04:57:09;;;;;;;50.70;26.67;;;3.20;99.90;;;;;;4994095;28;20109;-89
2021/03/10 04:59:38;;;;;;;47.27;27.13;;;3.20;99.90;;;;;;4976888;28;20032;-86
2021/03/10 05:02:04;;;;;;;51.87;26.30;;;3.20;99.90;;;;;;4972483;28;20443;-87
2021/03/10 05:04:29;;;;;;;52.00;27.03;;;3.20;99.90;;;;;;4977917;28;20129;-87
2021/03/10 05:06:55;;;;;;;47.53;25.50;;;3.10;99.90;;;;;;4977109;28;20034;-87
2021/03/10 05:09:20;;;;;;;50.70;26.17;;;3.10;99.90;;;;;;4976608;28;20113;-87
2021/03/10 05:11:46;;;;;;;50.93;27.80;;;3.10;99.90;;;;;;4977176;28;20031;-87
2021/03/10 05:14:12;;;;;;;49.07;25.87;;;3.10;99.90;;;;;;4976752;28;20030;-87
2021/03/10 05:16:37;;;;;;;51.80;25.40;;;3.20;99.90;;;;;;4994301;28;20101;-87
2021/03/10 05:19:03;;;;;;;48.53;25.47;;;3.20;99.90;;;;;;4976397;28;20049;-87
2021/03/10 05:21:28;;;;;;;50.07;26.80;;;3.20;99.90;;;;;;4977455;28;20034;-87
2021/03/10 05:23:54;;;;;;;49.13;25.17;;;3.20;99.90;;;;;;4976537;28;20106;-87
2021/03/10 05:26:20;;;;;;;48.40;26.43;;;3.30;99.90;;;;;;4976900;28;20034;-87
2021/03/10 05:28:45;;;;;;;50.60;27.63;;;3.30;99.90;;;;;;4976681;28;20038;-87
2021/03/10 05:31:11;;;;;;;49.97;25.37;;;3.30;99.90;;;;;;4975308;28;20037;-87
2021/03/10 05:33:36;;;;;;;51.67;26.03;;;3.20;99.90;;;;;;4973187;28;20069;-87
2021/03/10 05:36:04;;;;;;;45.43;25.47;;;3.30;99.90;;;;;;4977927;28;20037;-87
2021/03/10 05:38:33;;;;;;;42.77;22.50;;;3.30;99.90;;;;;;4973455;28;20049;-88
2021/03/10 05:40:59;;;;;;;50.70;26.63;;;3.30;99.90;;;;;;4977038;28;20022;-86
2021/03/10 05:43:25;;;;;;;43.50;24.00;;;3.30;99.90;;;;;;4977662;28;20035;-87
2021/03/10 05:45:51;;;;;;;49.83;25.33;;;3.30;99.90;;;;;;4977283;28;20049;-87
2021/03/10 05:48:17;;;;;;;47.77;25.37;;;3.40;99.90;;;;;;4972020;28;20027;-86
2021/03/10 05:50:43;;;;;;;55.00;26.70;;;3.30;99.90;;;;;;4977154;28;20033;-87
2021/03/10 05:53:12;;;;;;;52.80;28.57;;;3.30;99.90;;;;;;4976173;28;20117;-88
2021/03/10 05:55:39;;;;;;;53.27;26.67;;;3.40;99.90;;;;;;4973765;28;20026;-87
2021/03/10 05:58:13;;;;;;;51.50;25.87;;;3.30;99.90;;;;;;4974753;28;20590;-87
2021/03/10 06:00:43;;;;;;;47.83;24.93;;;3.40;99.90;;;;;;4974863;28;20038;-86
2021/03/10 06:03:11;;;;;;;48.13;26.37;;;3.40;99.90;;;;;;4969930;28;20056;-87
2021/03/10 06:05:37;;;;;;;50.53;25.13;;;3.40;99.90;;;;;;4972618;28;20029;-87
2021/03/10 06:08:05;;;;;;;49.60;25.43;;;3.40;99.90;;;;;;4974712;28;20026;-87
2021/03/10 06:10:46;;;;;;;51.07;25.57;;;3.40;99.90;;;;;;4973032;28;20118;-88
2021/03/10 06:13:23;;;;;;;46.77;23.40;;;3.40;99.90;;;;;;4969665;28;20022;-87
2021/03/10 06:15:50;;;;;;;49.00;25.77;;;3.50;99.90;;;;;;4974465;28;20031;-87
2021/03/10 06:18:33;;;;;;;55.10;26.97;;;3.40;99.90;;;;;;4974164;28;20375;-87
2021/03/10 06:21:15;;;;;;;52.95;26.17;;;3.40;99.90;;;;;;4980475;28;20022;-88
2021/03/10 06:24:03;;;;;;;55.80;27.27;;;3.40;99.90;;;;;;4976264;28;20046;-87
2021/03/10 06:26:34;;;;;;;54.83;26.73;;;3.30;99.90;;;;;;4980613;28;20038;-87
2021/03/10 06:29:02;;;;;;;53.77;27.10;;;3.20;99.90;;;;;;4974825;28;20105;-87
2021/03/10 06:31:34;;;;;;;50.57;25.07;;;3.20;99.90;;;;;;4974846;28;20038;-87
2021/03/10 06:34:15;;;;;;;51.27;26.70;;;3.20;99.90;;;;;;4991931;28;20436;-87
2021/03/10 06:36:48;;;;;;;50.80;26.73;;;3.20;99.90;;;;;;4998705;28;20028;-87
2021/03/10 06:39:28;;;;;;;51.33;27.70;;;3.20;99.90;;;;;;4974258;28;20042;-87
2021/03/10 06:41:55;;;;;;;47.13;25.30;;;3.30;99.90;;;;;;4971564;28;20026;-86
2021/03/10 06:44:23;;;;;;;47.20;24.60;;;3.40;99.90;;;;;;4977070;28;20034;-86
2021/03/10 06:46:57;;;;;;;48.40;25.27;;;3.50;99.90;;;;;;4972331;28;20031;-87
2021/03/10 06:49:25;;;;;;;52.90;26.50;;;3.50;99.90;;;;;;4979813;28;20492;-86
2021/03/10 06:52:10;;;;;;;50.57;26.60;;;3.60;99.90;;;;;;4974708;28;20543;-87
2021/03/10 06:54:36;;;;;;;52.03;26.47;;;3.60;99.90;;;;;;4966791;28;20061;-87
2021/03/10 06:57:07;;;;;;;48.40;25.50;;;3.70;99.90;;;;;;4969767;28;20058;-87
2021/03/10 06:59:43;;;;;;;49.23;25.30;;;3.70;99.90;;;;;;4969804;28;20049;-87
2021/03/10 07:02:20;;;;;;;48.67;26.17;;;3.60;99.90;;;;;;4973147;28;20041;-87
2021/03/10 07:04:53;;;;;;;51.83;26.67;;;3.60;99.90;;;;;;4971076;28;20030;-86
2021/03/10 07:07:21;;;;;;;44.07;24.73;;;3.60;99.90;;;;;;4967003;28;20022;-87
2021/03/10 07:09:47;;;;;;;51.67;25.87;;;3.70;99.90;;;;;;4971654;28;20027;-87
2021/03/10 07:12:17;;;;;;;45.40;24.77;;;3.60;99.90;;;;;;4976132;28;20065;-86
2021/03/10 07:14:43;;;;;;;50.03;26.27;;;3.70;99.90;;;;;;4974207;28;20034;-86
2021/03/10 07:17:13;;;;;;;47.30;26.07;;;3.70;99.90;;;;;;4971794;28;20449;-86
2021/03/10 07:19:39;;;;;;;47.40;25.63;;;3.70;99.90;;;;;;4976797;28;20426;-87
2021/03/10 07:22:23;;;;;;;48.70;25.60;;;3.70;99.90;;;;;;4976800;28;20030;-86
2021/03/10 07:24:55;;;;;;;49.50;25.33;;;3.80;99.90;;;;;;4973398;28;20089;-87
2021/03/10 07:27:24;;;;;;;32.10;17.83;;;3.80;99.90;;;;;;4976538;28;20029;-86
2021/03/10 07:29:58;;;;;;;46.33;24.30;;;3.90;99.90;;;;;;4986643;28;20049;-87
2021/03/10 07:32:25;;;;;;;46.10;23.83;;;3.90;99.90;;;;;;4975530;28;20479;-87
2021/03/10 07:35:04;;;;;;;48.10;25.00;;;3.90;99.90;;;;;;4976014;28;20480;-87
2021/03/10 07:37:30;;;;;;;49.07;25.67;;;4.00;99.90;;;;;;4974013;28;20039;-86
2021/03/10 07:40:11;;;;;;;41.17;23.60;;;4.10;99.90;;;;;;4969873;28;20050;-86
2021/03/10 07:42:55;;;;;;;45.67;24.93;;;4.20;99.90;;;;;;4979549;28;20101;-86
2021/03/10 07:45:41;;;;;;;44.97;24.57;;;4.20;99.90;;;;;;4975891;28;20056;-85
2021/03/10 07:48:08;;;;;;;47.87;24.73;;;4.30;99.90;;;;;;4971336;28;20049;-86
2021/03/10 07:50:46;;;;;;;45.03;24.50;;;4.40;99.90;;;;;;4973549;28;20015;-85
2021/03/10 07:53:12;;;;;;;46.90;25.50;;;4.40;99.90;;;;;;4974130;28;20097;-84
2021/03/10 07:55:47;;;;;;;42.73;24.07;;;4.50;99.90;;;;;;4972223;28;20042;-88
2021/03/10 07:58:34;;;;;;;45.17;24.23;;;4.40;99.90;;;;;;4988922;28;20288;-88
2021/03/10 08:01:01;;;;;;;46.77;25.20;;;4.50;99.90;;;;;;4974082;28;20026;-88
2021/03/10 08:03:33;;;;;;;42.37;23.87;;;4.60;99.90;;;;;;4992134;28;20022;-88
2021/03/10 08:06:04;;;;;;;41.70;23.27;;;4.60;99.90;;;;;;4993751;28;20018;-88
2021/03/10 08:08:49;;;;;;;42.93;24.67;;;4.60;99.90;;;;;;4977874;28;20022;-87
2021/03/10 08:11:17;;;;;;;44.83;24.60;;;4.60;99.90;;;;;;4977696;28;20295;-88
2021/03/10 08:13:47;;;;;;;43.40;24.43;;;4.70;99.90;;;;;;4996320;28;20042;-87
2021/03/10 08:16:13;;;;;;;48.80;24.87;;;4.70;99.90;;;;;;4977964;28;20030;-89
2021/03/10 08:18:45;;;;;;;47.57;24.70;;;4.70;99.90;;;;;;4959664;28;20044;-88
2021/03/10 08:21:18;;;;;;;42.77;24.47;;;4.80;99.90;;;;;;4973549;28;20033;-87
2021/03/10 08:23:44;;;;;;;45.03;24.83;;;4.90;99.90;;;;;;4975354;28;20050;-89
2021/03/10 08:26:12;;;;;;;45.70;24.43;;;4.90;99.90;;;;;;4977024;28;20066;-92
2021/03/10 08:28:40;;;;;;;44.40;25.40;;;5.00;99.90;;;;;;4975199;28;20022;-90
2021/03/10 08:31:10;;;;;;;41.60;23.40;;;5.10;99.90;;;;;;4977580;28;20023;-89
2021/03/10 08:33:52;;;;;;;44.43;23.80;;;5.10;99.90;;;;;;4991228;28;20023;-89
2021/03/10 08:36:29;;;;;;;47.65;24.17;;;5.20;99.90;;;;;;4975295;28;20625;-90
2021/03/10 08:38:56;;;;;;;44.20;23.97;;;5.20;99.90;;;;;;4970472;28;20406;-89
2021/03/10 08:41:22;;;;;;;45.33;23.73;;;5.30;99.90;;;;;;4991426;28;20428;-89
2021/03/10 08:43:48;;;;;;;43.13;24.97;;;5.40;99.90;;;;;;4976003;28;20131;-88
2021/03/10 08:46:14;;;;;;;39.40;22.80;;;5.50;99.90;;;;;;4971007;28;20049;-88
2021/03/10 08:48:48;;;;;;;43.70;23.17;;;5.60;99.90;;;;;;4981439;28;20025;-91
2021/03/10 08:51:20;;;;;;;46.30;24.13;;;5.70;99.90;;;;;;5016403;28;20032;-92
2021/03/10 08:53:46;;;;;;;44.60;22.75;;;5.80;99.90;;;;;;5007005;28;20026;-90
2021/03/10 08:56:12;;;;;;;38.60;22.83;;;5.90;99.90;;;;;;5012785;28;20033;-91
2021/03/10 08:58:40;;;;;;;38.87;21.77;;;6.10;99.90;;;;;;5009923;28;20060;-91
2021/03/10 09:01:13;;;;;;;42.93;23.47;;;6.20;99.90;;;;;;4989078;28;20034;-91
2021/03/10 09:03:43;;;;;;;40.20;22.50;;;6.20;99.90;;;;;;4981573;28;20650;-91
2021/03/10 09:06:17;;;;;;;43.13;23.07;;;6.20;99.90;;;;;;4980978;28;20031;-91
2021/03/10 09:08:43;;;;;;;39.37;22.87;;;6.50;99.90;;;;;;4971791;28;20569;-89
2021/03/10 09:11:10;;;;;;;41.20;22.23;;;6.60;99.90;;;;;;4971720;28;20074;-89
2021/03/10 09:13:36;;;;;;;40.70;22.77;;;6.70;99.90;;;;;;4963322;28;20030;-89
2021/03/10 09:16:09;;;;;;;42.83;24.00;;;6.70;99.90;;;;;;4990582;28;20026;-89
2021/03/10 09:18:36;;;;;;;38.13;21.67;;;7.00;99.90;;;;;;4972154;28;20713;-90
2021/03/10 09:21:02;;;;;;;37.50;21.47;;;7.30;99.90;;;;;;4973852;28;20088;-90
2021/03/10 09:23:29;;;;;;;35.10;20.43;;;7.40;99.90;;;;;;4971942;28;20085;-89
2021/03/10 09:25:55;;;;;;;35.43;21.47;;;7.40;99.90;;;;;;4984296;28;20034;-90
2021/03/10 09:28:21;;;;;;;37.30;20.77;;;7.50;99.90;;;;;;4975858;28;20034;-92
2021/03/10 09:30:50;;;;;;;37.03;19.70;;;7.50;99.90;;;;;;4975337;28;20497;-92
2021/03/10 09:33:30;;;;;;;39.77;21.97;;;7.40;99.90;;;;;;4979612;28;20063;-91
2021/03/10 09:35:58;;;;;;;37.77;22.33;;;7.40;99.90;;;;;;4995435;28;20650;-90
2021/03/10 09:38:34;;;;;;;35.17;20.53;;;7.40;99.90;;;;;;4978621;28;20050;-90
2021/03/10 09:41:02;;;;;;;33.47;20.30;;;7.60;99.90;;;;;;4982231;28;20043;-91
2021/03/10 09:43:30;;;;;;;32.50;19.53;;;7.70;99.90;;;;;;4977918;28;20022;-92
2021/03/10 09:46:05;;;;;;;30.97;18.70;;;7.70;99.90;;;;;;4986057;28;20712;-91
2021/03/10 09:48:36;;;;;;;32.63;18.83;;;7.70;99.90;;;;;;4980320;28;20018;-89
2021/03/10 09:51:16;;;;;;;31.42;18.73;;;7.50;99.90;;;;;;4993390;28;20135;-91
2021/03/10 09:53:43;;;;;;;32.10;19.40;;;7.60;99.90;;;;;;4992346;28;20011;-91
2021/03/10 09:56:12;;;;;;;33.80;19.03;;;7.70;99.90;;;;;;5020269;28;20033;-90
2021/03/10 09:58:52;;;;;;;32.93;19.80;;;7.80;99.90;;;;;;5007324;28;20090;-91
2021/03/10 10:01:18;;;;;;;35.30;17.70;;;8.00;99.90;;;;;;5011303;23;20053;-86
2021/03/10 10:03:44;;;;;;;31.20;17.57;;;8.30;99.90;;;;;;4992445;28;20011;-86
2021/03/10 10:06:11;;;;;;;30.93;17.53;;;8.30;99.90;;;;;;4981516;28;20518;-86
2021/03/10 10:08:38;;;;;;;30.93;17.23;;;8.20;99.90;;;;;;4990443;28;20507;-86
2021/03/10 10:11:05;;;;;;;30.23;17.33;;;8.20;99.90;;;;;;4958810;28;20058;-86
2021/03/10 10:13:31;;;;;;;27.47;15.07;;;8.00;99.90;;;;;;4969683;28;20105;-86
2021/03/10 10:15:56;;;;;;;25.70;15.10;;;7.90;99.90;;;;;;4971707;28;20428;-86
2021/03/10 10:18:23;;;;;;;31.67;16.27;;;7.70;99.90;;;;;;4966462;28;20082;-86
2021/03/10 10:20:49;;;;;;;30.80;16.77;;;7.60;99.90;;;;;;4964098;28;20027;-86
2021/03/10 10:23:15;;;;;;;28.57;17.13;;;7.40;99.90;;;;;;4972045;28;20088;-86
2021/03/10 10:25:40;;;;;;;28.20;16.57;;;7.20;99.90;;;;;;4971488;28;20527;-86
2021/03/10 10:28:06;;;;;;;27.53;16.17;;;7.20;99.90;;;;;;4972632;28;20027;-86
2021/03/10 10:30:32;;;;;;;24.17;14.77;;;7.20;99.90;;;;;;4971447;28;20456;-85
2021/03/10 10:32:57;;;;;;;23.97;14.40;;;7.30;99.90;;;;;;4966529;28;20026;-86
2021/03/10 10:35:23;;;;;;;23.23;13.07;;;7.30;99.90;;;;;;4970173;28;20627;-85
2021/03/10 10:37:49;;;;;;;23.07;12.70;;;7.50;99.90;;;;;;4969121;28;20037;-85
2021/03/10 10:40:20;;;;;;;22.47;12.33;;;7.40;99.90;;;;;;4969755;28;20023;-85
2021/03/10 10:42:50;;;;;;;25.30;13.20;;;7.50;99.90;;;;;;4970061;28;20034;-85
2021/03/10 10:45:17;;;;;;;25.43;13.17;;;7.50;99.90;;;;;;4975306;28;20023;-86
2021/03/10 10:47:44;;;;;;;20.73;12.20;;;7.40;99.90;;;;;;4972714;28;20507;-85
2021/03/10 10:50:15;;;;;;;25.00;11.23;;;7.50;99.90;;;;;;4973402;28;20031;-86
2021/03/10 10:52:40;;;;;;;18.87;11.07;;;7.50;99.90;;;;;;4976232;28;20030;-87
2021/03/10 10:55:24;;;;;;;22.93;12.97;;;7.40;99.90;;;;;;4973872;28;20322;-87
2021/03/10 10:57:50;;;;;;;19.13;11.07;;;7.40;99.90;;;;;;4970642;28;20037;-88
2021/03/10 11:00:20;;;;;;;20.30;10.97;;;7.60;99.90;;;;;;4974934;28;20027;-86
2021/03/10 11:02:45;;;;;;;18.83;10.33;;;7.60;99.90;;;;;;4973694;28;20451;-87
2021/03/10 11:05:11;;;;;;;16.50;8.13;;;7.80;99.90;;;;;;4973627;28;20117;-86
2021/03/10 11:07:40;;;;;;;13.57;7.30;;;7.90;97.20;;;;;;4974506;28;20391;-86
2021/03/10 11:10:06;;;;;;;11.23;5.77;;;8.00;95.00;;;;;;4975040;28;20019;-86
2021/03/10 11:12:32;;;;;;;8.90;4.57;;;8.10;93.00;;;;;;4971096;28;20027;-86
2021/03/10 11:14:58;;;;;;;8.93;4.13;;;8.20;89.20;;;;;;4970071;28;20491;-86
2021/03/10 11:17:26;;;;;;;10.23;5.40;;;8.30;86.70;;;;;;4974280;28;20436;-85
2021/03/10 11:19:51;;;;;;;10.57;5.30;;;8.40;85.60;;;;;;4972027;28;20030;-86
2021/03/10 11:22:17;;;;;;;12.20;5.60;;;8.50;84.30;;;;;;4970924;28;20388;-86
2021/03/10 11:24:44;;;;;;;8.57;4.97;;;8.50;85.50;;;;;;4970133;28;20027;-85
2021/03/10 11:27:10;;;;;;;10.60;5.00;;;8.50;84.60;;;;;;4971148;28;20400;-86
2021/03/10 11:29:36;;;;;;;10.20;5.23;;;8.50;84.20;;;;;;4969291;28;20018;-87
2021/03/10 11:32:02;;;;;;;10.68;5.25;;;8.50;82.60;;;;;;4969724;28;20019;-87
2021/03/10 11:34:30;;;;;;;9.93;5.00;;;8.50;83.30;;;;;;4956635;28;20129;-86
2021/03/10 11:36:56;;;;;;;8.87;5.00;;;8.50;83.30;;;;;;4957914;28;20476;-86
2021/03/10 11:39:23;;;;;;;9.50;4.50;;;8.60;84.10;;;;;;4974816;28;20050;-87
2021/03/10 11:41:49;;;;;;;8.23;4.00;;;8.70;81.20;;;;;;4974894;28;20029;-85
2021/03/10 11:44:16;;;;;;;7.82;4.15;;;8.60;78.10;;;;;;4970304;28;20106;-85
2021/03/10 11:46:44;;;;;;;7.63;4.17;;;8.70;77.90;;;;;;4974789;28;20126;-86
2021/03/10 11:49:10;;;;;;;8.00;4.23;;;8.80;79.10;;;;;;4972783;28;20031;-87
2021/03/10 11:51:36;;;;;;;7.80;4.50;;;8.70;78.50;;;;;;4972782;28;20446;-86
2021/03/10 11:54:02;;;;;;;8.05;4.60;;;9.00;78.90;;;;;;4972390;28;20469;-87
2021/03/10 11:56:28;;;;;;;8.20;4.25;;;9.00;76.40;;;;;;4969164;28;20034;-87
2021/03/10 11:58:55;;;;;;;8.18;4.10;;;9.00;75.70;;;;;;4970036;28;20035;-87
2021/03/10 12:01:20;;;;;;;9.03;4.50;;;9.00;74.90;;;;;;4972700;28;20030;-87
2021/03/10 12:03:46;;;;;;;8.20;4.07;;;9.10;75.80;;;;;;4972041;28;20121;-86
2021/03/10 12:06:12;;;;;;;8.18;4.10;;;9.10;76.60;;;;;;4971620;28;20027;-87
2021/03/10 12:08:37;;;;;;;8.98;3.97;;;9.20;74.40;;;;;;4969311;28;20023;-87
2021/03/10 12:11:03;;;;;;;7.22;3.78;;;9.30;74.70;;;;;;4970847;28;20034;-86
2021/03/10 12:13:29;;;;;;;8.07;3.42;;;9.30;75.10;;;;;;4971160;28;20547;-85
2021/03/10 12:15:56;;;;;;;8.35;4.03;;;9.40;74.30;;;;;;4974545;28;20125;-86
2021/03/10 12:18:22;;;;;;;7.50;3.95;;;9.50;73.80;;;;;;4971004;28;20519;-87
2021/03/10 12:20:48;;;;;;;6.43;3.22;;;9.50;71.00;;;;;;4974038;28;20086;-84
2021/03/10 12:23:15;;;;;;;7.45;3.50;;;9.50;71.20;;;;;;4967710;28;20015;-86
2021/03/10 12:25:41;;;;;;;6.03;3.00;;;9.50;71.60;;;;;;4967951;28;20401;-86
2021/03/10 12:28:06;;;;;;;8.05;3.22;;;9.40;71.00;;;;;;4972869;28;20385;-86
2021/03/10 12:30:32;;;;;;;5.70;3.20;;;9.50;70.90;;;;;;4976053;28;20026;-88
2021/03/10 12:32:58;;;;;;;6.45;3.50;;;9.60;70.60;;;;;;4968245;28;20074;-87
2021/03/10 12:35:23;;;;;;;6.78;3.63;;;9.40;70.00;;;;;;4968379;28;20023;-87
2021/03/10 12:37:49;;;;;;;7.97;4.00;;;9.50;71.00;;;;;;4973061;28;20031;-86
2021/03/10 12:40:15;;;;;;;7.60;4.05;;;9.40;71.80;;;;;;4970356;28;20023;-87
2021/03/10 12:42:41;;;;;;;7.07;3.70;;;9.40;71.20;;;;;;4971581;28;20041;-86
2021/03/10 12:45:08;;;;;;;7.90;3.80;;;9.30;70.60;;;;;;4970519;28;20050;-87